Time;durP1;ratioP1;P1;durP2;ratioP2;P2;SDS_P1;SDS_P2;PMS_P1;PMS_P2;Temp;Humidity;BMP_temperature;BMP_pressure;BME280_temperature;BME280_humidity;BME280_pressure;Samples;Min_cycle;Max_cycle;Signal;HPM_P1;HPM_P2
2023/01/07 00:01:42;;;;;;;1.00;1.00;;;;;;;;;;5015849;28;20727;-88
2023/01/07 00:04:13;;;;;;;1.05;1.05;;;;;;;;;;5015363;28;20207;-87
2023/01/07 00:06:46;;;;;;;1.08;1.08;;;;;;;;;;5015715;28;20254;-87
2023/01/07 00:09:16;;;;;;;1.00;1.00;;;;;;;;;;5015206;28;20636;-87
2023/01/07 00:11:44;;;;;;;1.20;1.20;;;;;;;;;;5016096;28;20601;-88
2023/01/07 00:14:13;;;;;;;0.90;0.90;;;;;;;;;;5016255;28;20199;-87
2023/01/07 00:16:41;;;;;;;1.27;1.20;;;;;;;;;;5016418;28;20229;-88
2023/01/07 00:19:11;;;;;;;1.35;1.35;;;;;;;;;;5015460;28;20282;-87
2023/01/07 00:21:38;;;;;;;1.00;1.00;;;;;;;;;;5015412;28;20315;-88
2023/01/07 00:24:07;;;;;;;0.90;0.90;;;;;;;;;;5015397;28;20203;-88
2023/01/07 00:26:38;;;;;;;0.95;0.95;;;;;;;;;;5015614;28;20217;-87
2023/01/07 00:29:40;;;;;;;1.00;1.00;;;;;;;;;;5014922;28;20218;-88
2023/01/07 00:32:09;;;;;;;1.02;1.02;;;;;;;;;;5015773;28;20191;-88
2023/01/07 00:34:37;;;;;;;1.35;1.25;;;;;;;;;;5014658;28;20285;-88
2023/01/07 00:39:50;;;;;;;0.98;0.98;;;;;;;;;;5015104;28;20186;-86
2023/01/07 00:45:04;;;;;;;1.08;1.02;;;;;;;;;;5034127;28;20202;-87
2023/01/07 00:47:32;;;;;;;1.10;1.10;;;;;;;;;;5034935;28;20309;-87
2023/01/07 00:50:00;;;;;;;1.10;1.10;;;;;;;;;;5018937;28;20322;-87
2023/01/07 00:52:27;;;;;;;0.93;0.93;;;;;;;;;;5014569;28;20203;-88
2023/01/07 00:54:55;;;;;;;1.10;1.10;;;;;;;;;;5014178;28;20310;-87
2023/01/07 00:57:23;;;;;;;1.15;0.95;;;;;;;;;;5014149;28;20228;-88
2023/01/07 00:59:51;;;;;;;1.50;1.40;;;;;;;;;;5014371;28;20230;-88
2023/01/07 01:02:19;;;;;;;1.40;1.30;;;;;;;;;;5014830;28;20241;-88
2023/01/07 01:04:46;;;;;;;1.00;1.00;;;;;;;;;;5015799;28;20291;-87
2023/01/07 01:07:14;;;;;;;0.90;0.90;;;;;;;;;;5015379;28;20229;-88
2023/01/07 01:09:41;;;;;;;1.33;1.23;;;;;;;;;;5015556;28;20234;-88
2023/01/07 01:12:09;;;;;;;1.42;1.33;;;;;;;;;;5015477;28;20289;-88
2023/01/07 01:14:37;;;;;;;0.80;0.80;;;;;;;;;;5014566;28;20290;-88
2023/01/07 01:17:05;;;;;;;0.90;0.90;;;;;;;;;;5014999;28;20564;-87
2023/01/07 01:19:32;;;;;;;1.10;1.10;;;;;;;;;;5014544;28;20209;-88
2023/01/07 01:22:00;;;;;;;0.85;0.85;;;;;;;;;;5014970;28;20338;-88
2023/01/07 01:24:27;;;;;;;1.13;1.13;;;;;;;;;;5015337;28;20297;-87
2023/01/07 01:26:55;;;;;;;1.00;1.00;;;;;;;;;;5014699;28;20282;-87
2023/01/07 01:29:22;;;;;;;1.35;1.25;;;;;;;;;;5015143;28;20230;-87
2023/01/07 01:31:51;;;;;;;0.88;0.88;;;;;;;;;;5014809;28;20225;-88
2023/01/07 01:34:19;;;;;;;1.00;1.00;;;;;;;;;;5014240;28;20206;-88
2023/01/07 01:36:47;;;;;;;1.05;1.05;;;;;;;;;;5013887;28;20233;-88
2023/01/07 01:39:14;;;;;;;1.38;1.27;;;;;;;;;;5014261;28;20637;-88
2023/01/07 01:41:41;;;;;;;1.00;1.00;;;;;;;;;;5013726;28;20281;-88
2023/01/07 01:44:37;;;;;;;0.95;0.93;;;;;;;;;;5014092;28;20353;-88
2023/01/07 01:47:10;;;;;;;1.30;1.20;;;;;;;;;;5014367;28;20266;-88
2023/01/07 01:49:45;;;;;;;1.38;1.27;;;;;;;;;;5013946;28;20618;-88
2023/01/07 01:52:15;;;;;;;1.15;1.15;;;;;;;;;;5014133;28;20187;-88
2023/01/07 01:54:48;;;;;;;1.10;1.10;;;;;;;;;;5013831;28;20219;-88
2023/01/07 01:57:16;;;;;;;1.08;1.08;;;;;;;;;;5014053;28;20223;-88
2023/01/07 01:59:47;;;;;;;1.27;1.17;;;;;;;;;;5013669;28;20274;-88
2023/01/07 02:02:23;;;;;;;1.00;1.00;;;;;;;;;;5013984;28;20190;-88
2023/01/07 02:04:50;;;;;;;1.63;1.52;;;;;;;;;;5013353;28;20191;-87
2023/01/07 02:07:18;;;;;;;1.05;1.05;;;;;;;;;;5015060;28;20287;-88
2023/01/07 02:09:48;;;;;;;1.10;1.10;;;;;;;;;;5017173;28;20675;-88
2023/01/07 02:12:21;;;;;;;1.13;1.10;;;;;;;;;;5017510;28;20290;-87
2023/01/07 02:15:06;;;;;;;1.10;1.10;;;;;;;;;;5017596;28;20187;-88
2023/01/07 02:17:55;;;;;;;1.10;1.10;;;;;;;;;;5016787;28;20218;-89
2023/01/07 02:20:58;;;;;;;1.85;1.70;;;;;;;;;;5016893;28;20230;-88
2023/01/07 02:24:20;;;;;;;1.40;1.40;;;;;;;;;;4997078;28;20198;-87
2023/01/07 02:27:31;;;;;;;1.80;1.70;;;;;;;;;;4992626;28;20243;-88
2023/01/07 02:30:39;;;;;;;1.90;1.77;;;;;;;;;;4997187;28;20235;-88
2023/01/07 02:33:33;;;;;;;1.58;1.48;;;;;;;;;;4997260;28;20280;-88
2023/01/07 02:36:32;;;;;;;1.45;1.35;;;;;;;;;;4997086;28;20220;-88
2023/01/07 02:39:12;;;;;;;1.80;1.70;;;;;;;;;;5010141;28;20214;-88
2023/01/07 02:41:48;;;;;;;1.90;1.80;;;;;;;;;;5016776;28;20699;-88
2023/01/07 02:44:25;;;;;;;2.33;2.13;;;;;;;;;;5016972;28;20229;-88
2023/01/07 02:46:57;;;;;;;1.63;1.52;;;;;;;;;;5016827;28;20274;-88
2023/01/07 02:49:25;;;;;;;1.83;1.73;;;;;;;;;;5016582;28;20190;-88
2023/01/07 02:51:53;;;;;;;1.98;1.80;;;;;;;;;;5016490;28;20269;-88
2023/01/07 02:54:23;;;;;;;1.98;1.88;;;;;;;;;;5015875;28;20246;-88
2023/01/07 02:57:19;;;;;;;1.80;1.70;;;;;;;;;;5016451;28;20278;-88
2023/01/07 03:00:03;;;;;;;2.17;2.08;;;;;;;;;;5016269;28;20239;-88
2023/01/07 03:03:03;;;;;;;2.58;2.40;;;;;;;;;;5016382;28;20207;-87
2023/01/07 03:05:43;;;;;;;2.33;2.22;;;;;;;;;;5016396;28;20668;-87
2023/01/07 03:08:33;;;;;;;2.38;2.17;;;;;;;;;;5016155;28;20214;-88
2023/01/07 03:11:03;;;;;;;2.13;1.73;;;;;;;;;;5015915;28;20223;-88
2023/01/07 03:13:38;;;;;;;1.90;1.80;;;;;;;;;;5016297;28;20686;-89
2023/01/07 03:16:10;;;;;;;2.47;2.28;;;;;;;;;;5016524;28;20271;-88
2023/01/07 03:18:41;;;;;;;2.00;1.90;;;;;;;;;;5015050;28;20298;-88
2023/01/07 03:21:14;;;;;;;1.88;1.77;;;;;;;;;;5015827;28;20305;-88
2023/01/07 03:23:46;;;;;;;1.90;1.80;;;;;;;;;;5016113;28;20563;-89
2023/01/07 03:26:14;;;;;;;2.22;2.03;;;;;;;;;;5016085;28;20245;-88
2023/01/07 03:28:42;;;;;;;2.10;2.00;;;;;;;;;;5015950;28;20238;-88
2023/01/07 03:31:29;;;;;;;1.85;1.75;;;;;;;;;;5015634;28;20302;-88
2023/01/07 03:34:00;;;;;;;2.33;2.22;;;;;;;;;;5015907;28;20218;-88
2023/01/07 03:36:33;;;;;;;1.95;1.85;;;;;;;;;;5015786;28;20191;-88
2023/01/07 03:39:01;;;;;;;2.17;2.08;;;;;;;;;;5015935;28;20298;-89
2023/01/07 03:44:13;;;;;;;3.33;3.05;;;;;;;;;;5015579;28;20183;-88
2023/01/07 03:46:41;;;;;;;2.75;2.55;;;;;;;;;;5015324;28;20199;-88
2023/01/07 03:49:08;;;;;;;2.20;2.08;;;;;;;;;;5015625;28;20736;-88
2023/01/07 03:51:37;;;;;;;2.63;2.42;;;;;;;;;;5015519;28;20259;-87
2023/01/07 03:54:05;;;;;;;2.60;2.40;;;;;;;;;;5015787;28;20282;-88
2023/01/07 03:56:33;;;;;;;2.40;2.20;;;;;;;;;;5016316;28;20644;-87
2023/01/07 03:59:00;;;;;;;1.92;1.83;;;;;;;;;;5015542;28;20766;-88
2023/01/07 04:01:29;;;;;;;2.50;2.30;;;;;;;;;;5014943;28;20254;-88
2023/01/07 04:03:57;;;;;;;2.97;2.00;;;;;;;;;;5015533;28;20214;-88
2023/01/07 04:06:24;;;;;;;2.40;2.20;;;;;;;;;;5015457;28;20237;-87
2023/01/07 04:08:53;;;;;;;2.42;2.10;;;;;;;;;;5015250;28;20634;-88
2023/01/07 04:11:20;;;;;;;3.25;2.95;;;;;;;;;;5015421;28;20734;-89
2023/01/07 04:13:48;;;;;;;2.40;2.20;;;;;;;;;;5015699;28;20587;-87
2023/01/07 04:16:15;;;;;;;1.90;1.80;;;;;;;;;;5015406;28;20238;-88
2023/01/07 04:18:43;;;;;;;2.15;2.05;;;;;;;;;;5015515;28;20313;-88
2023/01/07 04:21:10;;;;;;;2.28;2.10;;;;;;;;;;5016593;28;20278;-87
2023/01/07 04:23:38;;;;;;;2.00;1.90;;;;;;;;;;5017356;28;20238;-87
2023/01/07 04:26:07;;;;;;;1.92;1.83;;;;;;;;;;5016365;28;20711;-87
2023/01/07 04:28:34;;;;;;;2.17;1.90;;;;;;;;;;5016389;28;20290;-88
2023/01/07 04:31:02;;;;;;;2.80;2.60;;;;;;;;;;5016012;28;20226;-88
2023/01/07 04:33:29;;;;;;;2.42;2.22;;;;;;;;;;5015982;28;20242;-88
2023/01/07 04:35:57;;;;;;;2.47;2.28;;;;;;;;;;5015757;28;20366;-88
2023/01/07 04:38:25;;;;;;;2.13;2.00;;;;;;;;;;5016221;28;20227;-88
2023/01/07 04:40:52;;;;;;;2.22;2.03;;;;;;;;;;5016434;28;20266;-88
2023/01/07 04:43:21;;;;;;;2.80;2.60;;;;;;;;;;5016601;28;20290;-88
2023/01/07 04:45:49;;;;;;;2.10;2.00;;;;;;;;;;5015763;28;20605;-88
2023/01/07 04:48:18;;;;;;;2.83;2.63;;;;;;;;;;5016165;28;20237;-88
2023/01/07 04:50:47;;;;;;;2.33;2.13;;;;;;;;;;5016185;28;20287;-88
2023/01/07 04:53:16;;;;;;;2.92;2.72;;;;;;;;;;5014805;28;20286;-88
2023/01/07 04:55:43;;;;;;;2.38;2.17;;;;;;;;;;5015415;28;20290;-88
2023/01/07 04:58:11;;;;;;;1.80;1.70;;;;;;;;;;5015712;28;20238;-88
2023/01/07 05:00:39;;;;;;;2.20;2.00;;;;;;;;;;5015996;28;20265;-88
2023/01/07 05:03:08;;;;;;;2.45;2.25;;;;;;;;;;5014485;28;20275;-88
2023/01/07 05:05:35;;;;;;;2.92;2.72;;;;;;;;;;5015361;28;20576;-88
2023/01/07 05:08:03;;;;;;;2.65;2.45;;;;;;;;;;5015402;28;20234;-88
2023/01/07 05:10:31;;;;;;;2.80;2.60;;;;;;;;;;5015831;28;20254;-88
2023/01/07 05:12:59;;;;;;;3.58;3.38;;;;;;;;;;5016411;28;20648;-88
2023/01/07 05:15:26;;;;;;;3.22;3.03;;;;;;;;;;5015807;28;20656;-88
2023/01/07 05:17:55;;;;;;;3.33;3.03;;;;;;;;;;5016016;28;20245;-87
2023/01/07 05:20:23;;;;;;;3.85;3.55;;;;;;;;;;5016398;28;20227;-88
2023/01/07 05:22:50;;;;;;;3.30;3.10;;;;;;;;;;5016768;28;20293;-88
2023/01/07 05:25:18;;;;;;;4.43;3.05;;;;;;;;;;5017689;28;20249;-88
2023/01/07 05:27:45;;;;;;;3.50;3.20;;;;;;;;;;5016263;28;20703;-88
2023/01/07 05:30:14;;;;;;;3.78;3.47;;;;;;;;;;5016496;28;20242;-88
2023/01/07 05:32:42;;;;;;;2.85;2.65;;;;;;;;;;5016307;28;20294;-88
2023/01/07 05:35:11;;;;;;;2.42;2.30;;;;;;;;;;5017317;28;20293;-88
2023/01/07 05:37:38;;;;;;;3.28;3.08;;;;;;;;;;5015558;28;20262;-88
2023/01/07 05:40:07;;;;;;;2.70;2.50;;;;;;;;;;5014451;28;20310;-88
2023/01/07 05:42:35;;;;;;;2.63;2.42;;;;;;;;;;5020215;28;20735;-87
2023/01/07 05:45:02;;;;;;;2.80;2.60;;;;;;;;;;5021182;28;20206;-87
2023/01/07 05:47:30;;;;;;;3.03;2.83;;;;;;;;;;5020661;28;20261;-88
2023/01/07 05:49:57;;;;;;;3.40;3.10;;;;;;;;;;5020325;28;20199;-88
2023/01/07 05:52:26;;;;;;;2.58;2.38;;;;;;;;;;5020630;28;20329;-88
2023/01/07 05:54:54;;;;;;;2.63;2.42;;;;;;;;;;5020560;28;20191;-88
2023/01/07 05:57:22;;;;;;;3.17;2.90;;;;;;;;;;5020585;28;20203;-87
2023/01/07 05:59:49;;;;;;;2.97;2.67;;;;;;;;;;5022208;28;20265;-87
2023/01/07 06:02:17;;;;;;;3.50;3.20;;;;;;;;;;5022229;28;20203;-87
2023/01/07 06:04:44;;;;;;;3.40;3.20;;;;;;;;;;5019768;28;20241;-87
2023/01/07 06:07:12;;;;;;;2.47;2.28;;;;;;;;;;5020218;28;20326;-87
2023/01/07 06:09:40;;;;;;;2.67;2.40;;;;;;;;;;5019605;28;20203;-88
2023/01/07 06:12:09;;;;;;;3.47;2.90;;;;;;;;;;5020609;28;20254;-88
2023/01/07 06:14:36;;;;;;;2.30;2.20;;;;;;;;;;5020921;28;20290;-87
2023/01/07 06:17:04;;;;;;;1.80;1.70;;;;;;;;;;5021193;28;20286;-87
2023/01/07 06:19:31;;;;;;;1.83;1.73;;;;;;;;;;5020709;28;20755;-86
2023/01/07 06:21:59;;;;;;;2.15;2.03;;;;;;;;;;5020197;28;20340;-87
2023/01/07 06:24:26;;;;;;;2.75;2.30;;;;;;;;;;5020395;28;20554;-87
2023/01/07 06:26:55;;;;;;;2.78;2.58;;;;;;;;;;5020798;28;20290;-87
2023/01/07 06:29:23;;;;;;;3.25;2.80;;;;;;;;;;5021467;28;20203;-87
2023/01/07 06:31:50;;;;;;;3.28;2.97;;;;;;;;;;5019829;28;20321;-87
2023/01/07 06:34:18;;;;;;;2.25;2.05;;;;;;;;;;5019121;28;20295;-87
2023/01/07 06:36:45;;;;;;;2.20;2.10;;;;;;;;;;5019464;28;20275;-87
2023/01/07 06:39:13;;;;;;;2.17;2.08;;;;;;;;;;5019015;28;20262;-88
2023/01/07 06:41:41;;;;;;;2.20;2.08;;;;;;;;;;5019310;28;20322;-88
2023/01/07 06:44:10;;;;;;;2.22;2.03;;;;;;;;;;5019032;28;20289;-88
2023/01/07 06:46:37;;;;;;;2.67;2.47;;;;;;;;;;5018383;28;20594;-87
2023/01/07 06:49:05;;;;;;;2.28;2.13;;;;;;;;;;5018664;28;20640;-88
2023/01/07 06:51:32;;;;;;;1.73;1.63;;;;;;;;;;5019433;28;21045;-88
2023/01/07 06:54:00;;;;;;;2.20;2.10;;;;;;;;;;5017427;28;20230;-88
2023/01/07 06:56:27;;;;;;;1.80;1.70;;;;;;;;;;5018713;28;20242;-88
2023/01/07 06:58:55;;;;;;;2.03;1.92;;;;;;;;;;5018690;28;20246;-88
2023/01/07 07:01:24;;;;;;;1.98;1.88;;;;;;;;;;5019582;28;20663;-87
2023/01/07 07:03:51;;;;;;;1.80;1.70;;;;;;;;;;5018370;28;20298;-88
2023/01/07 07:06:18;;;;;;;2.40;2.20;;;;;;;;;;5019083;28;20254;-87
2023/01/07 07:08:46;;;;;;;2.00;1.90;;;;;;;;;;5019929;28;20646;-87
2023/01/07 07:11:13;;;;;;;2.03;1.92;;;;;;;;;;5019511;28;20219;-87
2023/01/07 07:13:41;;;;;;;2.55;2.35;;;;;;;;;;5018250;28;20637;-87
2023/01/07 07:16:09;;;;;;;2.20;2.03;;;;;;;;;;5017994;28;20638;-87
2023/01/07 07:18:38;;;;;;;5.43;2.80;;;;;;;;;;5017494;28;20235;-88
2023/01/07 07:21:05;;;;;;;2.50;2.30;;;;;;;;;;5017373;28;20741;-88
2023/01/07 07:23:33;;;;;;;3.28;2.35;;;;;;;;;;5017495;28;20238;-87
2023/01/07 07:26:00;;;;;;;2.70;2.03;;;;;;;;;;5017643;28;20257;-87
2023/01/07 07:28:28;;;;;;;2.63;2.42;;;;;;;;;;5017256;28;20574;-87
2023/01/07 07:30:55;;;;;;;3.17;2.78;;;;;;;;;;5017685;28;20247;-87
2023/01/07 07:33:23;;;;;;;2.70;2.50;;;;;;;;;;5016904;28;20203;-87
2023/01/07 07:35:53;;;;;;;2.40;2.22;;;;;;;;;;5017366;28;20646;-88
2023/01/07 07:38:20;;;;;;;2.28;2.08;;;;;;;;;;5017530;28;20210;-87
2023/01/07 07:40:48;;;;;;;2.05;1.75;;;;;;;;;;5017065;28;20231;-87
2023/01/07 07:43:16;;;;;;;2.42;2.22;;;;;;;;;;5016661;28;20286;-88
2023/01/07 07:45:44;;;;;;;2.38;2.22;;;;;;;;;;5016587;28;20270;-87
2023/01/07 07:48:15;;;;;;;2.50;2.30;;;;;;;;;;5015759;28;20306;-88
2023/01/07 07:50:42;;;;;;;2.33;2.15;;;;;;;;;;4998303;28;20317;-88
2023/01/07 07:53:12;;;;;;;2.67;2.47;;;;;;;;;;5017308;28;20220;-88
2023/01/07 07:55:40;;;;;;;2.03;1.92;;;;;;;;;;5017492;28;20191;-88
2023/01/07 07:58:08;;;;;;;1.65;1.55;;;;;;;;;;5016945;28;20234;-87
2023/01/07 08:00:35;;;;;;;1.75;1.65;;;;;;;;;;5016060;28;20732;-88
2023/01/07 08:03:03;;;;;;;2.00;1.90;;;;;;;;;;5015603;28;20302;-88
2023/01/07 08:05:30;;;;;;;2.33;2.10;;;;;;;;;;5030383;23;20245;-86
2023/01/07 08:07:58;;;;;;;2.13;2.03;;;;;;;;;;5027787;28;20290;-86
2023/01/07 08:10:28;;;;;;;2.58;2.38;;;;;;;;;;5020577;28;20562;-87
2023/01/07 08:12:55;;;;;;;3.15;2.58;;;;;;;;;;5020263;28;20234;-86
2023/01/07 08:15:23;;;;;;;2.30;2.10;;;;;;;;;;5020707;28;20286;-84
2023/01/07 08:17:58;;;;;;;2.05;1.85;;;;;;;;;;5019420;28;20210;-86
2023/01/07 08:20:27;;;;;;;2.28;2.08;;;;;;;;;;5019831;28;20193;-86
2023/01/07 08:22:55;;;;;;;2.40;2.00;;;;;;;;;;5019371;28;20230;-85
2023/01/07 08:25:22;;;;;;;2.38;2.13;;;;;;;;;;5019736;28;20659;-85
2023/01/07 08:27:51;;;;;;;2.65;2.33;;;;;;;;;;5011880;28;20237;-84
2023/01/07 08:30:19;;;;;;;3.05;2.55;;;;;;;;;;5019106;28;20265;-85
2023/01/07 08:32:46;;;;;;;2.13;2.03;;;;;;;;;;5019726;28;20199;-85
2023/01/07 08:35:14;;;;;;;4.32;3.38;;;;;;;;;;5019716;28;20257;-86
2023/01/07 08:37:42;;;;;;;2.35;2.25;;;;;;;;;;5020504;28;20210;-83
2023/01/07 08:40:12;;;;;;;2.22;2.05;;;;;;;;;;5019409;28;20293;-84
2023/01/07 08:42:40;;;;;;;2.95;2.47;;;;;;;;;;5021233;28;20223;-83
2023/01/07 08:45:12;;;;;;;2.38;2.17;;;;;;;;;;5020516;28;20238;-85
2023/01/07 08:47:39;;;;;;;3.40;3.10;;;;;;;;;;5017095;28;20294;-88
2023/01/07 08:50:08;;;;;;;2.88;2.67;;;;;;;;;;5014773;28;20254;-89
2023/01/07 08:52:36;;;;;;;3.05;2.75;;;;;;;;;;5014980;28;20195;-89
2023/01/07 08:55:03;;;;;;;2.85;2.45;;;;;;;;;;5015792;28;20309;-91
2023/01/07 08:57:31;;;;;;;3.58;2.47;;;;;;;;;;5016053;28;20203;-90
2023/01/07 08:59:59;;;;;;;2.80;2.20;;;;;;;;;;5016059;28;20199;-90
2023/01/07 09:02:27;;;;;;;2.95;2.75;;;;;;;;;;5015887;28;20260;-91
2023/01/07 09:04:55;;;;;;;2.60;2.40;;;;;;;;;;5015772;28;20203;-89
2023/01/07 09:07:22;;;;;;;2.63;2.42;;;;;;;;;;5015294;28;20180;-89
2023/01/07 09:09:50;;;;;;;2.47;2.28;;;;;;;;;;5015606;28;20282;-90
2023/01/07 09:12:33;;;;;;;2.35;2.15;;;;;;;;;;5015778;28;20241;-89
2023/01/07 09:15:00;;;;;;;2.33;2.22;;;;;;;;;;5015268;28;20187;-89
2023/01/07 09:17:29;;;;;;;2.40;2.20;;;;;;;;;;5017530;28;20199;-89
2023/01/07 09:20:01;;;;;;;2.42;2.22;;;;;;;;;;5013850;28;20286;-90
2023/01/07 09:22:29;;;;;;;2.92;2.72;;;;;;;;;;5014036;28;20214;-89
2023/01/07 09:24:56;;;;;;;3.03;2.72;;;;;;;;;;5013752;28;20230;-88
2023/01/07 09:27:25;;;;;;;1.77;1.67;;;;;;;;;;5014312;28;20676;-90
2023/01/07 09:29:53;;;;;;;1.95;1.85;;;;;;;;;;5013757;28;20218;-89
2023/01/07 09:32:21;;;;;;;2.40;2.20;;;;;;;;;;5014111;28;20210;-89
2023/01/07 09:35:21;;;;;;;1.90;1.80;;;;;;;;;;5015481;28;20262;-89
2023/01/07 09:37:49;;;;;;;2.53;2.33;;;;;;;;;;5014179;28;20230;-87
2023/01/07 09:40:25;;;;;;;2.00;1.88;;;;;;;;;;5013565;28;20289;-87
2023/01/07 09:43:03;;;;;;;2.13;1.98;;;;;;;;;;5013715;28;20207;-87
2023/01/07 09:45:34;;;;;;;2.70;1.77;;;;;;;;;;5013458;28;20310;-88
2023/01/07 09:48:05;;;;;;;2.83;2.55;;;;;;;;;;5014025;28;20686;-89
2023/01/07 09:50:44;;;;;;;1.80;1.70;;;;;;;;;;5013944;28;20283;-88
2023/01/07 09:53:16;;;;;;;2.92;2.63;;;;;;;;;;5013606;28;20282;-88
2023/01/07 09:55:44;;;;;;;2.50;2.33;;;;;;;;;;5013450;28;20226;-89
2023/01/07 09:58:16;;;;;;;2.88;2.67;;;;;;;;;;5013391;28;20232;-88
2023/01/07 10:00:56;;;;;;;2.33;2.10;;;;;;;;;;4993605;28;20194;-88
2023/01/07 10:03:37;;;;;;;1.77;1.67;;;;;;;;;;4993993;28;20270;-88
2023/01/07 10:06:12;;;;;;;1.90;1.73;;;;;;;;;;5004165;28;21066;-88
2023/01/07 10:08:53;;;;;;;2.40;2.20;;;;;;;;;;5013598;28;20617;-88
2023/01/07 10:11:35;;;;;;;1.88;1.77;;;;;;;;;;5013393;28;20306;-89
2023/01/07 10:14:39;;;;;;;2.40;2.10;;;;;;;;;;5013778;28;20230;-88
2023/01/07 10:17:20;;;;;;;1.58;1.48;;;;;;;;;;5006545;28;20305;-90
2023/01/07 10:19:55;;;;;;;1.75;1.65;;;;;;;;;;5013231;28;20203;-89
2023/01/07 10:22:29;;;;;;;2.13;2.00;;;;;;;;;;5012614;28;20247;-89
2023/01/07 10:25:00;;;;;;;1.83;1.73;;;;;;;;;;5012547;28;20175;-89
2023/01/07 10:27:46;;;;;;;1.60;1.50;;;;;;;;;;5012705;28;20270;-88
2023/01/07 10:30:19;;;;;;;1.70;1.60;;;;;;;;;;5016148;28;20179;-90
2023/01/07 10:32:47;;;;;;;1.70;1.58;;;;;;;;;;5016341;28;20246;-88
2023/01/07 10:35:19;;;;;;;3.20;2.22;;;;;;;;;;5017092;28;20227;-89
2023/01/07 10:37:48;;;;;;;1.85;1.75;;;;;;;;;;5016582;28;20194;-90
2023/01/07 10:40:31;;;;;;;1.70;1.60;;;;;;;;;;5004496;28;20235;-88
2023/01/07 10:43:03;;;;;;;2.00;1.80;;;;;;;;;;4996546;28;20298;-88
2023/01/07 10:45:51;;;;;;;2.70;2.50;;;;;;;;;;4996327;28;20250;-88
2023/01/07 10:48:53;;;;;;;1.90;1.75;;;;;;;;;;4996189;28;20279;-88
2023/01/07 10:51:42;;;;;;;1.80;1.70;;;;;;;;;;4996521;28;20274;-87
2023/01/07 10:54:41;;;;;;;1.65;1.55;;;;;;;;;;4996483;28;20539;-88
2023/01/07 10:57:14;;;;;;;1.38;1.27;;;;;;;;;;5014552;28;20776;-88
2023/01/07 10:59:42;;;;;;;1.50;1.40;;;;;;;;;;5015817;28;20601;-89
2023/01/07 11:02:16;;;;;;;1.48;1.38;;;;;;;;;;5015784;28;20707;-89
2023/01/07 11:04:44;;;;;;;1.40;1.30;;;;;;;;;;5015681;28;20636;-88
2023/01/07 11:07:18;;;;;;;1.10;1.10;;;;;;;;;;5015154;28;20306;-88
2023/01/07 11:09:48;;;;;;;1.13;1.10;;;;;;;;;;5013465;28;20201;-89
2023/01/07 11:12:27;;;;;;;1.27;1.27;;;;;;;;;;5015920;28;20740;-88
2023/01/07 11:14:57;;;;;;;1.45;1.35;;;;;;;;;;5015394;28;20285;-89
2023/01/07 11:17:32;;;;;;;3.28;1.60;;;;;;;;;;5015341;28;20626;-87
2023/01/07 11:19:59;;;;;;;1.15;1.10;;;;;;;;;;5013295;28;20385;-89
2023/01/07 11:22:33;;;;;;;0.82;0.82;;;;;;;;;;5015243;28;20322;-88
2023/01/07 11:25:07;;;;;;;0.98;0.98;;;;;;;;;;5016136;28;20598;-89
2023/01/07 11:27:35;;;;;;;1.10;1.00;;;;;;;;;;5015405;28;20217;-88
2023/01/07 11:30:09;;;;;;;0.85;0.85;;;;;;;;;;4997974;28;20195;-88
2023/01/07 11:32:39;;;;;;;1.25;1.13;;;;;;;;;;5003597;28;20249;-87
2023/01/07 11:35:18;;;;;;;1.00;1.00;;;;;;;;;;5016739;28;20699;-88
2023/01/07 11:38:25;;;;;;;0.90;0.90;;;;;;;;;;5027394;28;20638;-88
2023/01/07 11:40:58;;;;;;;0.88;0.88;;;;;;;;;;5014935;28;20183;-87
2023/01/07 11:43:31;;;;;;;0.80;0.80;;;;;;;;;;5015358;28;20207;-88
2023/01/07 11:46:01;;;;;;;1.00;0.90;;;;;;;;;;5015061;28;20246;-87
2023/01/07 11:48:35;;;;;;;1.00;1.00;;;;;;;;;;5015227;28;20282;-88
2023/01/07 11:51:06;;;;;;;1.00;1.00;;;;;;;;;;5015049;28;20598;-89
2023/01/07 11:53:36;;;;;;;1.10;1.10;;;;;;;;;;5030867;28;20309;-89
2023/01/07 11:56:08;;;;;;;0.90;0.90;;;;;;;;;;5034402;28;20241;-88
2023/01/07 11:58:37;;;;;;;0.98;0.98;;;;;;;;;;5028417;28;20624;-88
2023/01/07 12:01:15;;;;;;;0.68;0.68;;;;;;;;;;5015082;28;20610;-89
2023/01/07 12:03:45;;;;;;;0.90;0.90;;;;;;;;;;5014400;28;20632;-89
2023/01/07 12:06:21;;;;;;;0.88;0.88;;;;;;;;;;5001283;28;20231;-89
2023/01/07 12:08:56;;;;;;;1.05;0.95;;;;;;;;;;4994832;28;20895;-88
2023/01/07 12:11:57;;;;;;;1.50;1.10;;;;;;;;;;4994892;28;20274;-89
2023/01/07 12:14:30;;;;;;;1.17;0.98;;;;;;;;;;4994656;28;20197;-89
2023/01/07 12:17:09;;;;;;;1.00;1.00;;;;;;;;;;4995376;28;20224;-88
2023/01/07 12:19:58;;;;;;;1.05;0.90;;;;;;;;;;4995026;28;20294;-89
2023/01/07 12:22:39;;;;;;;0.88;0.88;;;;;;;;;;4995180;28;20206;-89
2023/01/07 12:25:23;;;;;;;0.80;0.80;;;;;;;;;;4994662;28;20223;-88
2023/01/07 12:28:02;;;;;;;0.90;0.90;;;;;;;;;;4994760;28;20283;-89
2023/01/07 12:30:55;;;;;;;0.95;0.95;;;;;;;;;;4995108;28;20223;-88
2023/01/07 12:33:38;;;;;;;0.88;0.88;;;;;;;;;;4994649;28;20192;-89
2023/01/07 12:36:13;;;;;;;1.42;0.95;;;;;;;;;;4994462;28;20219;-89
2023/01/07 12:38:46;;;;;;;0.90;0.90;;;;;;;;;;4993957;28;20316;-88
2023/01/07 12:41:18;;;;;;;0.88;0.88;;;;;;;;;;4994776;28;20599;-88
2023/01/07 12:43:57;;;;;;;1.27;1.23;;;;;;;;;;4994404;28;20303;-89
2023/01/07 12:46:25;;;;;;;0.93;0.93;;;;;;;;;;4994182;28;20582;-88
2023/01/07 12:49:03;;;;;;;0.82;0.75;;;;;;;;;;4994391;28;20290;-88
2023/01/07 12:51:37;;;;;;;1.08;1.02;;;;;;;;;;4993627;28;20199;-88
2023/01/07 12:54:12;;;;;;;0.90;0.90;;;;;;;;;;4994500;28;20270;-87
2023/01/07 12:56:45;;;;;;;1.23;1.13;;;;;;;;;;5005051;28;20265;-87
2023/01/07 12:59:21;;;;;;;0.90;0.90;;;;;;;;;;5015684;28;20199;-89
2023/01/07 13:01:55;;;;;;;0.90;0.90;;;;;;;;;;5014394;28;20290;-87
2023/01/07 13:04:36;;;;;;;1.13;0.95;;;;;;;;;;5013399;28;20947;-86
2023/01/07 13:07:11;;;;;;;0.98;0.98;;;;;;;;;;5014710;28;20249;-88
2023/01/07 13:09:47;;;;;;;8.93;1.25;;;;;;;;;;5014176;28;20222;-87
2023/01/07 13:12:44;;;;;;;0.98;0.90;;;;;;;;;;5014670;28;20187;-87
2023/01/07 13:15:21;;;;;;;0.80;0.80;;;;;;;;;;5014278;28;20226;-87
2023/01/07 13:17:52;;;;;;;1.33;1.23;;;;;;;;;;5013692;28;20203;-89
2023/01/07 13:20:48;;;;;;;0.90;0.90;;;;;;;;;;5014329;28;20283;-87
2023/01/07 13:23:21;;;;;;;0.80;0.80;;;;;;;;;;5000623;28;20199;-87
2023/01/07 13:26:13;;;;;;;1.00;1.00;;;;;;;;;;5013920;28;20346;-87
2023/01/07 13:29:11;;;;;;;0.88;0.88;;;;;;;;;;5013416;28;20211;-89
2023/01/07 13:32:12;;;;;;;1.27;0.98;;;;;;;;;;5013954;28;20652;-87
2023/01/07 13:34:55;;;;;;;1.98;1.67;;;;;;;;;;4988258;28;20630;-89
2023/01/07 13:37:43;;;;;;;1.63;1.40;;;;;;;;;;5013526;28;20547;-88
2023/01/07 13:40:32;;;;;;;1.40;1.30;;;;;;;;;;5013492;28;20644;-89
2023/01/07 13:43:07;;;;;;;1.65;1.55;;;;;;;;;;5013523;28;20265;-88
2023/01/07 13:45:35;;;;;;;1.42;1.33;;;;;;;;;;5013917;28;20649;-88
2023/01/07 13:48:13;;;;;;;1.50;1.40;;;;;;;;;;5014878;28;20235;-86
2023/01/07 13:50:44;;;;;;;1.55;1.45;;;;;;;;;;5014963;28;20230;-89
2023/01/07 13:53:33;;;;;;;1.80;1.45;;;;;;;;;;5014836;28;20234;-89
2023/01/07 13:56:34;;;;;;;1.77;1.67;;;;;;;;;;5013720;28;20223;-88
2023/01/07 13:59:02;;;;;;;1.85;1.70;;;;;;;;;;5013419;28;20293;-87
2023/01/07 14:01:31;;;;;;;3.22;1.83;;;;;;;;;;5013151;28;20211;-88
2023/01/07 14:04:15;;;;;;;1.67;1.58;;;;;;;;;;5017171;28;20229;-88
2023/01/07 14:06:45;;;;;;;1.38;1.27;;;;;;;;;;5028567;23;20323;-84
2023/01/07 14:09:37;;;;;;;1.88;1.67;;;;;;;;;;4995302;28;20298;-85
2023/01/07 14:12:34;;;;;;;1.60;1.50;;;;;;;;;;4976190;28;20560;-85
2023/01/07 14:15:37;;;;;;;1.20;1.10;;;;;;;;;;4976132;28;20227;-85
2023/01/07 14:18:50;;;;;;;1.30;1.20;;;;;;;;;;4974048;28;20683;-86
2023/01/07 14:21:39;;;;;;;1.50;1.40;;;;;;;;;;4975953;28;20239;-85
2023/01/07 14:24:29;;;;;;;1.40;1.30;;;;;;;;;;4976432;28;20234;-84
2023/01/07 14:27:04;;;;;;;2.30;1.50;;;;;;;;;;4975880;28;20594;-85
2023/01/07 14:29:41;;;;;;;1.65;1.55;;;;;;;;;;4975171;28;20293;-85
2023/01/07 14:32:23;;;;;;;1.05;1.05;;;;;;;;;;4976220;28;20188;-85
2023/01/07 14:34:59;;;;;;;1.15;1.15;;;;;;;;;;4976328;28;20689;-85
2023/01/07 14:37:35;;;;;;;0.73;0.73;;;;;;;;;;4975866;28;20246;-85
2023/01/07 14:40:48;;;;;;;1.10;1.10;;;;;;;;;;4975339;28;20223;-85
2023/01/07 14:44:02;;;;;;;1.20;1.10;;;;;;;;;;4976095;28;20204;-85
2023/01/07 14:46:54;;;;;;;0.80;0.80;;;;;;;;;;4976056;28;20185;-86
2023/01/07 14:50:08;;;;;;;1.48;1.23;;;;;;;;;;4975803;28;20215;-85
2023/01/07 14:53:02;;;;;;;1.40;1.30;;;;;;;;;;4956582;28;20622;-86
2023/01/07 14:55:53;;;;;;;1.40;1.30;;;;;;;;;;4975952;28;20267;-84
2023/01/07 14:58:39;;;;;;;0.90;0.90;;;;;;;;;;4963725;28;20983;-85
2023/01/07 15:02:02;;;;;;;0.90;0.90;;;;;;;;;;4975460;28;20228;-85
2023/01/07 15:05:15;;;;;;;1.30;1.20;;;;;;;;;;4958774;28;20230;-85
2023/01/07 15:07:47;;;;;;;0.98;0.98;;;;;;;;;;4976022;28;20700;-84
2023/01/07 15:16:02;;;;;;;1.25;1.15;;;;;;;;;;4885587;28;20203;-85
2023/01/07 15:18:31;;;;;;;1.25;1.15;;;;;;;;;;4972140;28;20208;-85
2023/01/07 15:21:14;;;;;;;1.48;1.30;;;;;;;;;;4974148;28;20251;-85
2023/01/07 15:23:49;;;;;;;1.95;1.38;;;;;;;;;;4974631;28;20204;-85
2023/01/07 15:26:24;;;;;;;1.42;1.33;;;;;;;;;;4974782;28;20214;-84
2023/01/07 15:28:58;;;;;;;3.25;1.65;;;;;;;;;;4973018;28;20218;-84
2023/01/07 15:31:32;;;;;;;2.20;1.77;;;;;;;;;;4974769;28;20220;-85
2023/01/07 15:34:07;;;;;;;2.05;1.63;;;;;;;;;;4974839;28;20567;-85
2023/01/07 15:36:37;;;;;;;1.55;1.45;;;;;;;;;;4974482;28;20200;-85
2023/01/07 15:39:06;;;;;;;1.77;1.60;;;;;;;;;;4974034;28;20711;-86